Time;durP1;ratioP1;P1;durP2;ratioP2;P2;SDS_P1;SDS_P2;PMS_P1;PMS_P2;Temp;Humidity;BMP_temperature;BMP_pressure;BME280_temperature;BME280_humidity;BME280_pressure;Samples;Min_cycle;Max_cycle;Signal;HPM_P1;HPM_P2
2020/12/16 00:02:14;;;;;;;42.42;30.33;;;;;;;4.54;94.83;101426.91;5180304;28;20034;-72
2020/12/16 00:04:47;;;;;;;40.03;31.05;;;;;;;4.46;95.45;101403.94;5174511;28;20387;-72
2020/12/16 00:07:19;;;;;;;35.08;29.50;;;;;;;4.55;95.61;101426.84;5161387;28;20022;-72
2020/12/16 00:09:51;;;;;;;43.60;32.88;;;;;;;4.56;95.92;101425.94;5176791;28;20093;-72
2020/12/16 00:12:22;;;;;;;38.95;31.58;;;;;;;4.55;96.84;101418.22;5181048;28;20022;-73
2020/12/16 00:14:53;;;;;;;44.65;32.97;;;;;;;4.56;96.08;101415.53;5180026;28;20026;-72
2020/12/16 00:17:24;;;;;;;45.50;33.45;;;;;;;4.57;96.94;101411.19;5177581;28;20062;-72
2020/12/16 00:19:56;;;;;;;41.72;32.97;;;;;;;4.57;96.52;101425.00;5176878;28;20023;-73
2020/12/16 00:22:27;;;;;;;38.42;32.20;;;;;;;4.59;96.69;101424.94;5177752;28;20081;-72
2020/12/16 00:24:58;;;;;;;43.78;32.63;;;;;;;4.52;96.95;101427.00;5175551;28;20039;-72
2020/12/16 00:27:29;;;;;;;46.17;32.58;;;;;;;4.51;96.23;101419.28;5176969;28;20030;-70
2020/12/16 00:30:02;;;;;;;46.50;33.70;;;;;;;4.46;96.03;101423.88;5176108;28;20045;-69
2020/12/16 00:32:37;;;;;;;46.80;33.50;;;;;;;4.43;96.56;101424.00;5174592;28;20047;-70
2020/12/16 00:35:09;;;;;;;45.05;33.55;;;;;;;4.35;96.63;101429.56;5159586;28;20089;-70
2020/12/16 00:37:42;;;;;;;41.22;30.58;;;;;;;4.26;95.48;101427.44;5176730;28;20114;-70
2020/12/16 00:40:17;;;;;;;45.28;32.85;;;;;;;4.28;95.78;101430.78;5176952;28;20081;-70
2020/12/16 00:42:52;;;;;;;47.38;32.88;;;;;;;4.26;96.52;101430.88;5177150;28;20031;-70
2020/12/16 00:45:24;;;;;;;77.70;36.38;;;;;;;4.27;97.56;101434.31;5176281;28;20049;-69
2020/12/16 00:47:55;;;;;;;92.60;37.92;;;;;;;4.24;97.81;101431.84;5162779;28;20026;-70
2020/12/16 00:50:26;;;;;;;125.72;36.47;;;;;;;4.26;97.32;101435.22;5181128;28;20057;-72
2020/12/16 00:52:57;;;;;;;126.13;39.03;;;;;;;4.24;97.51;101431.84;5179651;28;20077;-71
2020/12/16 00:55:29;;;;;;;219.50;44.33;;;;;;;4.23;97.83;101436.22;5171695;28;20031;-71
2020/12/16 00:58:00;;;;;;;75.65;33.70;;;;;;;4.23;97.62;101428.44;5178805;28;20022;-71
2020/12/16 01:00:31;;;;;;;171.05;42.35;;;;;;;4.18;96.85;101427.00;5180519;28;20039;-71
2020/12/16 01:03:03;;;;;;;156.18;40.83;;;;;;;4.10;96.89;101429.94;5160033;28;20913;-72
2020/12/16 01:05:34;;;;;;;178.60;40.63;;;;;;;4.16;97.26;101445.19;5160746;28;20115;-71
2020/12/16 01:08:05;;;;;;;158.98;40.47;;;;;;;4.09;97.37;101438.63;5175821;28;20543;-71
2020/12/16 01:10:39;;;;;;;152.05;39.65;;;;;;;4.10;97.69;101438.56;5152908;28;20499;-71
2020/12/16 01:13:11;;;;;;;154.68;42.85;;;;;;;4.10;97.71;101445.50;5187310;28;20027;-71
2020/12/16 01:15:42;;;;;;;121.28;38.65;;;;;;;4.06;97.69;101439.63;5171209;28;20031;-71
2020/12/16 01:18:13;;;;;;;151.85;41.25;;;;;;;4.06;98.46;101444.81;5179563;28;20026;-72
2020/12/16 01:20:45;;;;;;;134.23;40.08;;;;;;;4.07;98.03;101445.66;5181516;28;20031;-71
2020/12/16 01:23:16;;;;;;;161.98;43.28;;;;;;;3.99;98.24;101438.25;5180527;28;20027;-71
2020/12/16 01:25:47;;;;;;;172.95;44.55;;;;;;;4.03;98.75;101452.75;5178307;28;20026;-71
2020/12/16 01:28:18;;;;;;;167.30;45.63;;;;;;;4.03;98.63;101457.94;5180853;28;20146;-71
2020/12/16 01:30:50;;;;;;;214.15;46.92;;;;;;;4.01;98.34;101446.78;5179142;28;20042;-71
2020/12/16 01:33:21;;;;;;;190.20;46.67;;;;;;;4.02;98.69;101439.84;5181852;28;20064;-71
2020/12/16 01:35:52;;;;;;;167.32;45.55;;;;;;;3.96;98.28;101440.16;5178142;28;20113;-71
2020/12/16 01:38:23;;;;;;;126.50;43.45;;;;;;;4.01;98.09;101445.94;5180553;28;20042;-71
2020/12/16 01:41:03;;;;;;;119.30;43.35;;;;;;;3.99;98.52;101440.00;5180044;28;20081;-71
2020/12/16 01:43:36;;;;;;;83.30;39.80;;;;;;;4.00;97.89;101460.66;5179676;28;20026;-71
2020/12/16 01:46:07;;;;;;;;;;;;;;;4.10;97.81;101469.69;5180353;28;20111;-71
2020/12/16 01:48:38;;;;;;;52.57;35.80;;;;;;;4.02;97.81;101471.81;5179946;28;19910;-70
2020/12/16 01:51:18;;;;;;;55.00;37.80;;;;;;;4.05;98.68;101474.25;5183681;28;20116;-72
2020/12/16 01:53:51;;;;;;;54.97;38.50;;;;;;;4.05;98.46;101476.84;5183638;28;20476;-71
2020/12/16 01:56:25;;;;;;;49.55;34.90;;;;;;;4.04;98.57;101482.94;5178607;28;20045;-71
2020/12/16 01:58:58;;;;;;;54.67;37.17;;;;;;;4.03;98.75;101481.25;5178498;28;20392;-71
2020/12/16 02:01:32;;;;;;;50.45;36.22;;;;;;;4.00;98.52;101473.63;5186986;28;20138;-71
2020/12/16 02:04:06;;;;;;;46.17;34.58;;;;;;;4.02;98.86;101471.81;5190884;28;20979;-70
2020/12/16 02:06:40;;;;;;;41.03;32.20;;;;;;;4.02;98.73;101464.03;5180278;28;20396;-71
2020/12/16 02:09:12;;;;;;;39.90;32.08;;;;;;;4.01;97.82;101477.03;5165944;28;20117;-71
2020/12/16 02:11:43;;;;;;;40.95;30.67;;;;;;;3.97;98.21;101485.88;5162086;28;20555;-70
2020/12/16 02:14:14;;;;;;;40.33;32.00;;;;;;;3.97;98.40;101484.13;5179401;28;20049;-71
2020/12/16 02:16:46;;;;;;;40.05;31.30;;;;;;;3.99;98.49;101477.13;5178855;28;20031;-71
2020/12/16 02:19:20;;;;;;;41.03;32.30;;;;;;;3.95;98.86;101472.16;5180302;28;20030;-71
2020/12/16 02:21:52;;;;;;;42.17;32.28;;;;;;;3.87;98.69;101477.72;5175206;28;20115;-71
2020/12/16 02:24:27;;;;;;;35.83;31.77;;;;;;;3.87;98.79;101480.31;5177907;28;20106;-71
2020/12/16 02:26:58;;;;;;;37.00;30.00;;;;;;;3.89;98.73;101486.25;5180421;28;20077;-71
2020/12/16 02:29:32;;;;;;;42.55;31.95;;;;;;;3.86;99.63;101469.09;5176912;28;20026;-71
2020/12/16 02:32:04;;;;;;;40.63;30.85;;;;;;;3.92;99.79;101483.50;5176905;28;20061;-71
2020/12/16 02:34:35;;;;;;;48.55;33.38;;;;;;;3.94;100.00;101481.69;5176782;28;20031;-71
2020/12/16 02:37:07;;;;;;;42.38;34.00;;;;;;;4.00;100.00;101481.41;5179182;28;20044;-71
2020/12/16 02:39:38;;;;;;;50.75;34.65;;;;;;;3.99;100.00;101479.72;5178452;28;20081;-71
2020/12/16 02:42:09;;;;;;;56.25;36.28;;;;;;;4.07;100.00;101485.38;5178368;28;20121;-71
2020/12/16 02:44:41;;;;;;;96.22;40.00;;;;;;;4.11;100.00;101483.50;5156869;28;20393;-71
2020/12/16 02:47:12;;;;;;;160.73;41.90;;;;;;;4.12;100.00;101485.16;5162927;28;20042;-71
2020/12/16 02:49:43;;;;;;;180.98;43.53;;;;;;;4.11;100.00;101484.31;5178152;28;20031;-71
2020/12/16 02:52:15;;;;;;;218.18;45.88;;;;;;;4.08;100.00;101484.47;5178496;28;20104;-71
2020/12/16 02:54:46;;;;;;;207.35;44.50;;;;;;;4.10;100.00;101481.81;5176653;28;20058;-71
2020/12/16 02:57:17;;;;;;;151.27;40.67;;;;;;;4.10;100.00;101477.47;5159310;28;20031;-71
2020/12/16 02:59:57;;;;;;;214.18;44.15;;;;;;;4.09;100.00;101477.53;5177102;28;20023;-71
2020/12/16 03:02:28;;;;;;;222.18;44.65;;;;;;;4.10;100.00;101477.47;5183276;28;22021;-71
2020/12/16 03:04:59;;;;;;;247.48;49.15;;;;;;;4.11;100.00;101465.34;5182225;28;20034;-71
2020/12/16 03:07:31;;;;;;;169.52;41.45;;;;;;;4.09;100.00;101464.56;5176352;28;20031;-71
2020/12/16 03:10:02;;;;;;;206.77;44.00;;;;;;;4.10;100.00;101466.25;5177038;28;20014;-71
2020/12/16 03:12:33;;;;;;;200.32;44.35;;;;;;;4.09;100.00;101460.22;5175228;28;20069;-70
2020/12/16 03:15:05;;;;;;;184.93;42.22;;;;;;;4.09;100.00;101460.22;5175274;28;20169;-71
2020/12/16 03:17:36;;;;;;;248.73;45.90;;;;;;;4.12;100.00;101459.22;5171146;28;20476;-71
2020/12/16 03:20:07;;;;;;;319.27;50.08;;;;;;;4.10;100.00;101468.84;5174096;28;20488;-71
2020/12/16 03:22:38;;;;;;;243.63;44.83;;;;;;;4.09;100.00;101475.78;5175910;28;20019;-70
2020/12/16 03:25:10;;;;;;;181.38;41.28;;;;;;;4.11;100.00;101479.13;5160934;28;20117;-72
2020/12/16 03:27:41;;;;;;;202.25;42.47;;;;;;;4.11;100.00;101491.25;5170899;28;20022;-71
2020/12/16 03:30:12;;;;;;;210.95;42.92;;;;;;;4.08;100.00;101486.22;5178408;28;20035;-71
2020/12/16 03:32:43;;;;;;;124.97;37.63;;;;;;;4.14;100.00;101501.50;5196588;23;20066;-71
2020/12/16 03:35:15;;;;;;;214.48;44.30;;;;;;;4.10;100.00;101500.81;5184470;28;20069;-73
2020/12/16 03:37:46;;;;;;;253.02;45.40;;;;;;;4.08;100.00;101496.59;5181489;28;20088;-71
2020/12/16 03:40:17;;;;;;;222.07;42.25;;;;;;;4.06;100.00;101482.88;5190554;28;20480;-71
2020/12/16 03:42:48;;;;;;;197.70;43.05;;;;;;;4.02;100.00;101482.19;5203136;28;20459;-71
2020/12/16 03:45:20;;;;;;;222.45;43.10;;;;;;;3.93;100.00;101472.22;5212756;28;20491;-71
2020/12/16 03:47:51;;;;;;;278.42;43.17;;;;;;;4.03;100.00;101494.22;5205135;28;20179;-70
2020/12/16 03:50:22;;;;;;;231.63;42.47;;;;;;;4.04;100.00;101493.31;5200079;28;20026;-71
2020/12/16 03:52:53;;;;;;;258.65;45.13;;;;;;;3.97;100.00;101481.53;5199293;28;20019;-71
2020/12/16 03:55:25;;;;;;;264.33;45.03;;;;;;;3.94;100.00;101479.09;5216449;28;20108;-72
2020/12/16 03:57:56;;;;;;;282.30;45.58;;;;;;;3.93;100.00;101481.75;5207291;28;20029;-71
2020/12/16 04:00:27;;;;;;;325.80;48.58;;;;;;;3.93;100.00;101485.19;5219624;28;20070;-71
2020/12/16 04:02:59;;;;;;;351.38;48.35;;;;;;;3.90;100.00;101485.31;5217666;28;20030;-72
2020/12/16 04:05:30;;;;;;;243.63;40.75;;;;;;;3.89;100.00;101494.03;5219095;28;20149;-71
2020/12/16 04:08:02;;;;;;;364.52;47.85;;;;;;;3.83;100.00;101489.97;5198496;28;20120;-71
2020/12/16 04:10:33;;;;;;;346.52;49.28;;;;;;;3.79;100.00;101488.44;5207123;28;20025;-70
2020/12/16 04:13:05;;;;;;;350.83;47.63;;;;;;;3.81;100.00;101493.53;5217687;28;20034;-72
2020/12/16 04:15:36;;;;;;;277.73;42.97;;;;;;;3.76;100.00;101483.38;5200377;28;20022;-71
2020/12/16 04:18:08;;;;;;;311.92;46.13;;;;;;;3.74;100.00;101486.94;5209750;28;20045;-71
2020/12/16 04:20:39;;;;;;;261.02;42.28;;;;;;;3.69;100.00;101483.75;5208801;28;20129;-71
2020/12/16 04:23:11;;;;;;;329.08;50.85;;;;;;;3.64;100.00;101479.63;5217091;28;20062;-71
2020/12/16 04:25:42;;;;;;;358.02;51.55;;;;;;;3.68;100.00;101484.66;5207036;28;20045;-71
2020/12/16 04:28:13;;;;;;;318.25;50.65;;;;;;;3.70;100.00;101491.44;5220261;28;20049;-72
2020/12/16 04:30:44;;;;;;;251.23;47.55;;;;;;;3.65;100.00;101478.69;5223018;28;20026;-72
2020/12/16 04:33:16;;;;;;;304.23;50.22;;;;;;;3.63;100.00;101467.53;5221670;28;20018;-72
2020/12/16 04:35:47;;;;;;;274.23;52.78;;;;;;;3.63;100.00;101466.72;5218110;28;20071;-71
2020/12/16 04:38:19;;;;;;;329.15;55.10;;;;;;;3.60;100.00;101469.47;5223029;28;20026;-72
2020/12/16 04:40:50;;;;;;;346.15;55.22;;;;;;;3.69;100.00;101474.22;5221161;28;20022;-71
2020/12/16 04:43:23;;;;;;;315.23;53.50;;;;;;;3.72;100.00;101475.84;5205140;28;20026;-71
2020/12/16 04:45:54;;;;;;;330.05;53.10;;;;;;;3.63;100.00;101457.19;5213594;28;20033;-71
2020/12/16 04:48:25;;;;;;;337.45;54.30;;;;;;;3.63;100.00;101461.53;5201173;28;20030;-72
2020/12/16 04:50:56;;;;;;;245.93;49.45;;;;;;;3.72;100.00;101468.06;5208544;28;20037;-71
2020/12/16 04:53:28;;;;;;;319.02;55.03;;;;;;;3.71;100.00;101474.97;5216539;28;20093;-71
2020/12/16 04:56:00;;;;;;;295.08;52.25;;;;;;;3.70;100.00;101475.03;5203998;28;20034;-72
2020/12/16 04:58:32;;;;;;;173.13;44.17;;;;;;;3.71;100.00;101471.53;5214600;28;20026;-71
2020/12/16 05:01:03;;;;;;;345.38;57.35;;;;;;;3.72;100.00;101471.50;5215594;28;20038;-71
2020/12/16 05:03:34;;;;;;;198.45;46.05;;;;;;;3.74;100.00;101466.22;5209799;28;20026;-71
2020/12/16 05:06:05;;;;;;;254.18;50.15;;;;;;;3.77;100.00;101472.09;5216266;28;20347;-71
2020/12/16 05:08:37;;;;;;;120.13;40.60;;;;;;;3.82;100.00;101477.91;5205389;28;20033;-72
2020/12/16 05:11:08;;;;;;;185.55;44.60;;;;;;;3.80;100.00;101469.38;5201723;28;20028;-71
2020/12/16 05:13:39;;;;;;;298.30;51.72;;;;;;;3.78;100.00;101470.34;5213720;28;20487;-71
2020/12/16 05:16:11;;;;;;;184.05;45.83;;;;;;;3.75;100.00;101475.66;5201834;28;20056;-72
2020/12/16 05:18:50;;;;;;;155.80;45.95;;;;;;;3.74;100.00;101474.00;5221211;28;20029;-72
2020/12/16 05:21:21;;;;;;;129.70;43.53;;;;;;;3.73;100.00;101478.34;5221723;28;20029;-72
2020/12/16 05:23:52;;;;;;;117.18;44.28;;;;;;;3.74;100.00;101474.81;5203965;28;20038;-71
2020/12/16 05:26:25;;;;;;;88.13;39.33;;;;;;;3.75;100.00;101480.84;5215730;28;20032;-71
2020/12/16 05:28:56;;;;;;;81.27;39.07;;;;;;;3.71;100.00;101477.56;5221203;28;20022;-72
2020/12/16 05:31:28;;;;;;;72.75;36.42;;;;;;;3.68;100.00;101467.34;5221154;28;20046;-72
2020/12/16 05:34:00;;;;;;;68.03;36.17;;;;;;;3.62;100.00;101478.81;5216580;28;20032;-71
2020/12/16 05:36:32;;;;;;;66.07;36.60;;;;;;;3.64;100.00;101479.63;5210997;28;20303;-72
2020/12/16 05:39:03;;;;;;;57.75;33.63;;;;;;;3.59;100.00;101484.13;5217690;28;20033;-71
2020/12/16 05:41:34;;;;;;;54.60;33.13;;;;;;;3.59;100.00;101486.72;5221098;28;20038;-71
2020/12/16 05:44:17;;;;;;;52.95;32.47;;;;;;;3.56;100.00;101476.53;5217946;28;20538;-72
2020/12/16 05:46:50;;;;;;;54.65;31.65;;;;;;;3.54;100.00;101475.75;5188049;28;20033;-71
2020/12/16 05:49:26;;;;;;;44.80;29.67;;;;;;;3.56;100.00;101478.25;5208268;28;20395;-72
2020/12/16 05:52:02;;;;;;;47.35;30.35;;;;;;;3.52;100.00;101485.31;5201138;28;20034;-71
2020/12/16 05:54:36;;;;;;;44.10;29.83;;;;;;;3.50;100.00;101491.50;5193249;28;20116;-71
2020/12/16 05:57:21;;;;;;;42.40;28.38;;;;;;;3.44;100.00;101482.25;5218897;28;20390;-72
2020/12/16 06:00:12;;;;;;;41.45;27.33;;;;;;;3.45;100.00;101499.50;5219483;28;20505;-71
2020/12/16 06:02:45;;;;;;;43.10;27.67;;;;;;;3.35;100.00;101482.66;5222492;28;20375;-71
2020/12/16 06:05:16;;;;;;;34.67;26.60;;;;;;;3.37;100.00;101488.59;5212537;28;20026;-71
2020/12/16 06:07:48;;;;;;;37.22;26.55;;;;;;;3.30;100.00;101479.44;5210261;28;20053;-72
2020/12/16 06:10:19;;;;;;;33.05;24.63;;;;;;;3.35;100.00;101480.91;5205135;28;20030;-72
2020/12/16 06:12:52;;;;;;;35.22;26.58;;;;;;;3.27;100.00;101482.16;5206621;28;20029;-71
2020/12/16 06:15:24;;;;;;;33.10;25.80;;;;;;;3.25;100.00;101486.56;5210876;28;20069;-71
2020/12/16 06:18:02;;;;;;;30.77;25.13;;;;;;;3.27;100.00;101493.38;5220940;28;20044;-72
2020/12/16 06:20:36;;;;;;;33.60;25.40;;;;;;;3.27;100.00;101487.34;5207006;28;20095;-71
2020/12/16 06:23:29;;;;;;;31.63;25.10;;;;;;;3.32;100.00;101490.56;5208821;28;20026;-71
2020/12/16 06:26:03;;;;;;;31.33;26.47;;;;;;;3.29;100.00;101485.50;5211369;28;20338;-71
2020/12/16 06:28:35;;;;;;;31.70;24.83;;;;;;;3.26;100.00;101480.47;5219379;28;20041;-71
2020/12/16 06:31:29;;;;;;;29.60;24.20;;;;;;;3.31;100.00;101489.72;5219121;28;20053;-72
2020/12/16 06:34:04;;;;;;;26.35;22.23;;;;;;;3.29;100.00;101493.28;5212568;28;20053;-71
2020/12/16 06:36:39;;;;;;;25.88;22.75;;;;;;;3.22;100.00;101492.75;5215578;28;20022;-71
2020/12/16 06:39:23;;;;;;;30.38;23.92;;;;;;;3.25;100.00;101490.00;5192933;28;20018;-71
2020/12/16 06:41:59;;;;;;;27.25;22.08;;;;;;;3.24;100.00;101490.91;5218143;28;20394;-71
2020/12/16 06:44:31;;;;;;;25.90;21.80;;;;;;;3.22;100.00;101490.16;5185029;28;20094;-71
2020/12/16 06:47:03;;;;;;;27.70;22.80;;;;;;;3.22;100.00;101486.69;5202597;28;20487;-71
2020/12/16 06:49:35;;;;;;;30.00;23.38;;;;;;;3.24;100.00;101493.50;5205715;28;20057;-71
2020/12/16 06:52:09;;;;;;;26.08;22.30;;;;;;;3.24;100.00;101500.44;5199929;28;20022;-71
2020/12/16 06:54:52;;;;;;;29.27;23.20;;;;;;;3.12;100.00;101486.25;5214104;28;20119;-71
2020/12/16 06:57:29;;;;;;;24.48;21.23;;;;;;;3.14;100.00;101482.72;5206288;28;20065;-70
2020/12/16 07:00:02;;;;;;;25.00;20.98;;;;;;;3.14;100.00;101494.78;5218417;28;20030;-71
2020/12/16 07:02:35;;;;;;;25.17;20.42;;;;;;;3.14;100.00;101487.91;5220378;28;20052;-71
2020/12/16 07:05:37;;;;;;;25.50;21.02;;;;;;;3.14;100.00;101485.31;5204038;28;20036;-71
2020/12/16 07:08:08;;;;;;;22.13;19.15;;;;;;;3.00;100.00;101479.03;5200486;28;20527;-71
2020/12/16 07:10:41;;;;;;;25.67;19.90;;;;;;;3.06;100.00;101482.19;5209827;28;20124;-71
2020/12/16 07:13:19;;;;;;;27.10;21.27;;;;;;;3.07;100.00;101481.28;5207052;28;20041;-71
2020/12/16 07:15:55;;;;;;;23.83;19.83;;;;;;;3.02;100.00;101492.75;5209042;28;20061;-70
2020/12/16 07:18:38;;;;;;;25.83;19.75;;;;;;;3.09;100.00;101488.97;5188746;28;20042;-70
2020/12/16 07:21:17;;;;;;;25.52;21.30;;;;;;;3.11;100.00;101489.78;5212745;28;20391;-70
2020/12/16 07:24:09;;;;;;;22.90;18.35;;;;;;;3.08;100.00;101495.91;5211493;28;20026;-71
2020/12/16 07:26:55;;;;;;;23.48;19.08;;;;;;;3.05;100.00;101488.28;5207423;28;20026;-70
2020/12/16 07:29:36;;;;;;;24.92;19.27;;;;;;;3.03;100.00;101497.00;5213607;28;20026;-71
2020/12/16 07:32:10;;;;;;;23.33;18.45;;;;;;;2.98;100.00;101492.03;5200510;28;20050;-71
2020/12/16 07:34:45;;;;;;;20.30;17.63;;;;;;;3.00;100.00;101503.16;5202184;28;20019;-70
2020/12/16 07:37:27;;;;;;;23.63;18.85;;;;;;;3.04;100.00;101494.38;5198869;28;20026;-71
2020/12/16 07:40:04;;;;;;;22.25;17.85;;;;;;;3.02;100.00;101500.50;5185905;28;20030;-71
2020/12/16 07:42:36;;;;;;;21.58;17.77;;;;;;;2.96;100.00;101496.44;5187749;28;20103;-70
2020/12/16 07:45:09;;;;;;;24.38;18.92;;;;;;;2.98;100.00;101504.97;5190019;28;20066;-70
2020/12/16 07:47:42;;;;;;;23.70;19.02;;;;;;;2.96;100.00;101511.97;5197189;28;20038;-71
2020/12/16 07:50:13;;;;;;;;;;;;;;;3.08;100.00;101502.84;5179904;28;20448;-71
2020/12/16 07:52:52;;;;;;;22.97;18.30;;;;;;;3.00;100.00;101490.22;5203788;28;19952;-71
2020/12/16 07:55:24;;;;;;;24.88;19.25;;;;;;;3.03;100.00;101502.19;5185868;28;20312;-71
2020/12/16 07:57:55;;;;;;;23.98;19.52;;;;;;;2.98;100.00;101504.97;5186158;28;20369;-69
2020/12/16 08:00:27;;;;;;;24.95;19.33;;;;;;;3.08;100.00;101514.03;5187095;28;20046;-69
2020/12/16 08:02:58;;;;;;;23.13;19.42;;;;;;;3.14;100.00;101510.31;5177149;28;20018;-70
2020/12/16 08:05:29;;;;;;;23.00;18.48;;;;;;;3.11;100.00;101502.72;5189946;28;20026;-71
2020/12/16 08:08:02;;;;;;;24.88;18.98;;;;;;;3.13;100.00;101504.31;5185059;28;20391;-70
2020/12/16 08:10:33;;;;;;;23.58;19.83;;;;;;;3.17;100.00;101499.84;5183103;28;20434;-71
2020/12/16 08:13:04;;;;;;;26.05;21.00;;;;;;;3.29;100.00;101507.06;5188190;28;20028;-71
2020/12/16 08:15:35;;;;;;;25.25;21.42;;;;;;;3.28;100.00;101502.81;5187613;28;20030;-70
2020/12/16 08:18:07;;;;;;;29.15;20.50;;;;;;;3.32;100.00;101514.72;5192032;28;20023;-71
2020/12/16 08:20:40;;;;;;;24.88;21.08;;;;;;;3.31;100.00;101510.44;5190258;28;20081;-70
2020/12/16 08:23:14;;;;;;;24.30;20.27;;;;;;;3.33;100.00;101515.53;5182193;28;20027;-70
2020/12/16 08:25:45;;;;;;;27.52;20.65;;;;;;;3.32;100.00;101517.31;5183724;28;20038;-70
2020/12/16 08:28:26;;;;;;;29.35;20.73;;;;;;;3.32;100.00;101506.09;5182156;28;20219;-70
2020/12/16 08:30:57;;;;;;;26.55;20.40;;;;;;;3.48;100.00;101522.66;5198739;28;20109;-70
2020/12/16 08:33:29;;;;;;;30.88;23.27;;;;;;;3.54;100.00;101524.13;5203303;28;20192;-70
2020/12/16 08:36:05;;;;;;;33.13;25.60;;;;;;;3.62;100.00;101517.69;5201476;28;20034;-70
2020/12/16 08:38:43;;;;;;;33.17;24.58;;;;;;;3.66;100.00;101508.03;5213995;28;20108;-70
2020/12/16 08:41:26;;;;;;;32.42;24.65;;;;;;;3.60;100.00;101496.22;5209451;28;20034;-69
2020/12/16 08:43:58;;;;;;;;;;;;;;;3.74;100.00;101518.06;5205901;28;20097;-70
2020/12/16 08:46:29;;;;;;;32.60;23.70;;;;;;;3.76;100.00;101511.91;5202559;28;19948;-70
2020/12/16 08:49:01;;;;;;;32.22;24.27;;;;;;;3.79;100.00;101504.00;5216267;28;20080;-71
2020/12/16 08:51:40;;;;;;;33.80;25.38;;;;;;;3.85;100.00;101508.03;5211988;28;20036;-70
2020/12/16 08:54:16;;;;;;;37.47;26.33;;;;;;;3.89;100.00;101505.22;5214632;28;20026;-70
2020/12/16 08:56:57;;;;;;;36.08;27.30;;;;;;;3.94;100.00;101511.94;5208849;28;20076;-71
2020/12/16 08:59:30;;;;;;;32.45;24.73;;;;;;;3.96;100.00;101505.78;5194998;28;20029;-71
2020/12/16 09:02:01;;;;;;;33.92;25.77;;;;;;;4.02;100.00;101513.28;5205097;28;20399;-70
2020/12/16 09:04:38;;;;;;;33.90;25.60;;;;;;;4.03;100.00;101506.34;5205437;28;20030;-70
2020/12/16 09:07:14;;;;;;;34.50;26.52;;;;;;;4.12;100.00;101519.69;5206342;28;20109;-70
2020/12/16 09:09:46;;;;;;;35.45;25.77;;;;;;;4.19;100.00;101515.06;5209118;28;20029;-70
2020/12/16 09:12:19;;;;;;;32.07;25.27;;;;;;;4.25;100.00;101514.78;5211204;28;20041;-69
2020/12/16 09:14:55;;;;;;;38.10;29.10;;;;;;;4.31;100.00;101516.25;5218888;28;20056;-70
2020/12/16 09:17:27;;;;;;;37.08;26.98;;;;;;;4.36;100.00;101515.13;5210472;28;20478;-71
2020/12/16 09:19:59;;;;;;;36.00;28.08;;;;;;;4.42;100.00;101513.97;5205181;28;20076;-70
2020/12/16 09:22:30;;;;;;;33.45;27.48;;;;;;;4.52;100.00;101519.56;5212526;28;20026;-70
2020/12/16 09:25:02;;;;;;;31.73;25.48;;;;;;;4.51;100.00;101521.34;5202145;28;20022;-70
2020/12/16 09:27:33;;;;;;;37.30;25.75;;;;;;;4.55;100.00;101528.06;5211757;28;20108;-70
2020/12/16 09:30:04;;;;;;;35.97;28.67;;;;;;;4.59;100.00;101520.97;5207697;28;20041;-71
2020/12/16 09:32:35;;;;;;;35.30;27.38;;;;;;;4.67;100.00;101538.75;5194314;23;20163;-72
2020/12/16 09:35:09;;;;;;;33.85;26.95;;;;;;;4.68;100.00;101533.47;5154005;28;20078;-74
2020/12/16 09:37:41;;;;;;;34.22;27.02;;;;;;;4.76;100.00;101548.66;5160023;28;20043;-73
2020/12/16 09:40:15;;;;;;;32.22;27.05;;;;;;;4.80;100.00;101548.44;5156945;28;20035;-72
2020/12/16 09:42:59;;;;;;;32.30;26.52;;;;;;;4.83;100.00;101537.06;5155925;28;20035;-72
2020/12/16 09:45:31;;;;;;;34.85;25.15;;;;;;;4.83;100.00;101537.06;5148622;28;20396;-72
2020/12/16 09:48:03;;;;;;;31.30;25.80;;;;;;;4.86;100.00;101523.94;5153173;28;20058;-72
2020/12/16 09:50:38;;;;;;;30.33;26.23;;;;;;;4.93;100.00;101527.91;5156984;28;20524;-73
2020/12/16 09:53:11;;;;;;;32.25;27.17;;;;;;;5.01;100.00;101524.94;5157166;28;20388;-72
2020/12/16 09:55:42;;;;;;;32.95;27.38;;;;;;;5.09;100.00;101517.59;5158877;28;20034;-73
2020/12/16 09:58:15;;;;;;;31.73;25.90;;;;;;;4.99;100.00;101499.03;5146220;28;20082;-73
2020/12/16 10:00:46;;;;;;;30.65;26.02;;;;;;;5.20;100.00;101519.63;5157150;28;20077;-73
2020/12/16 10:03:20;;;;;;;29.45;25.15;;;;;;;5.26;100.00;101521.91;5161194;28;20023;-72
2020/12/16 10:05:51;;;;;;;30.38;24.25;;;;;;;5.30;100.00;101520.81;5151815;28;20035;-73
2020/12/16 10:08:22;;;;;;;30.50;24.40;;;;;;;5.34;100.00;101512.81;5150134;28;20079;-74
2020/12/16 10:10:53;;;;;;;31.33;24.60;;;;;;;5.44;100.00;101510.56;5160530;28;20035;-73
2020/12/16 10:13:25;;;;;;;27.45;24.38;;;;;;;5.54;100.00;101505.72;5164007;28;20023;-73
2020/12/16 10:15:56;;;;;;;29.73;25.85;;;;;;;5.59;100.00;101504.53;5162372;28;20031;-73
2020/12/16 10:18:27;;;;;;;29.90;23.63;;;;;;;5.67;100.00;101495.50;5155699;28;20469;-72
2020/12/16 10:20:58;;;;;;;28.02;23.52;;;;;;;5.72;100.00;101489.16;5154336;28;20068;-73
2020/12/16 10:23:31;;;;;;;28.63;22.75;;;;;;;5.77;100.00;101488.88;5152673;28;20027;-74
2020/12/16 10:26:02;;;;;;;26.27;21.13;;;;;;;5.86;100.00;101486.59;5152851;28;20119;-72
2020/12/16 10:28:33;;;;;;;25.73;22.92;;;;;;;5.90;100.00;101482.06;5147499;28;20110;-72
2020/12/16 10:31:05;;;;;;;26.50;22.88;;;;;;;5.87;100.00;101474.44;5149210;28;20098;-73
2020/12/16 10:33:36;;;;;;;26.52;21.58;;;;;;;5.91;100.00;101480.31;5151309;28;20040;-72
2020/12/16 10:36:07;;;;;;;29.45;22.00;;;;;;;6.04;100.00;101481.34;5155570;28;20046;-73
2020/12/16 10:38:38;;;;;;;29.60;22.13;;;;;;;6.09;100.00;101466.31;5151225;28;20035;-72
2020/12/16 10:41:11;;;;;;;23.40;20.40;;;;;;;6.18;100.00;101462.38;5147496;28;20035;-73
2020/12/16 10:43:42;;;;;;;24.48;20.90;;;;;;;6.17;100.00;101450.28;5156296;28;20050;-72
2020/12/16 10:46:14;;;;;;;24.92;22.13;;;;;;;6.27;100.00;101469.66;5162848;28;20035;-72
2020/12/16 10:48:45;;;;;;;25.25;20.33;;;;;;;6.31;100.00;101460.75;5153393;28;20028;-73
2020/12/16 10:51:16;;;;;;;24.42;20.83;;;;;;;6.36;100.00;101463.91;5152747;28;20031;-73
2020/12/16 10:53:47;;;;;;;22.05;19.65;;;;;;;6.42;100.00;101457.53;5158474;28;20018;-73
2020/12/16 10:56:19;;;;;;;22.65;20.23;;;;;;;6.52;100.00;101454.31;5153139;28;20064;-73
2020/12/16 10:58:50;;;;;;;22.70;20.08;;;;;;;6.64;100.00;101454.53;5147004;28;20036;-71
2020/12/16 11:01:21;;;;;;;21.85;19.50;;;;;;;6.65;100.00;101453.59;5153793;28;20381;-71
2020/12/16 11:03:53;;;;;;;21.02;18.75;;;;;;;6.65;100.00;101446.63;5154722;28;20065;-70
2020/12/16 11:06:24;;;;;;;24.60;19.75;;;;;;;6.75;100.00;101449.53;5156884;28;20042;-71
2020/12/16 11:08:55;;;;;;;21.42;19.13;;;;;;;6.75;100.00;101452.16;5156297;28;20042;-70
2020/12/16 11:11:26;;;;;;;22.20;18.63;;;;;;;6.75;100.00;101445.16;5157803;28;20365;-71
2020/12/16 11:13:58;;;;;;;22.48;20.05;;;;;;;6.71;100.00;101429.81;5146974;28;20485;-72
2020/12/16 11:16:30;;;;;;;20.67;18.40;;;;;;;6.67;100.00;101436.97;5153218;28;20086;-70
2020/12/16 11:19:02;;;;;;;22.98;19.13;;;;;;;6.68;100.00;101440.41;5156508;28;20046;-71
2020/12/16 11:21:41;;;;;;;22.20;19.77;;;;;;;6.73;100.00;101433.16;5158938;28;20031;-71
2020/12/16 11:24:15;;;;;;;21.67;19.40;;;;;;;6.75;100.00;101431.31;5156783;28;20034;-71
2020/12/16 11:26:50;;;;;;;21.25;18.90;;;;;;;6.80;100.00;101426.66;5154714;28;20035;-70
2020/12/16 11:29:23;;;;;;;21.58;19.38;;;;;;;6.78;100.00;101426.75;5152637;28;20102;-71
2020/12/16 11:32:03;;;;;;;21.75;19.52;;;;;;;6.85;100.00;101429.81;5154913;28;20442;-71
2020/12/16 11:34:35;;;;;;;23.50;20.92;;;;;;;6.88;100.00;101442.66;5139816;29;20055;-71
2020/12/16 11:37:07;;;;;;;22.27;19.90;;;;;;;6.97;100.00;101446.47;5152885;28;20486;-71